ARG1009 SAVT-SACO
Flight info
| Callsign | ARG1009 |
|---|---|
| Flight time | 1h 1m |
| Altitude | 35000 |
| Route | ORAMU3C ORAMU DCT POTRO UT700 SIMES SIMES1U |
| Aircraft | A321/M-SDE3FGHIRWY/LB1 |
Departure
| Time | 2026-05-09 21:33 |
|---|---|
| Airport | Almirante Marco Andres Zar Airport (SAVT) |
Arrival
| Time | 2026-05-09 22:34 |
|---|---|
| Airport | Ingeniero Aeronáutico Ambrosio L.V. Taravella International Airport (SACO) |
| Time | Latitude | Longitude | Altitude | Speed | Heading |
|---|---|---|---|---|---|
| 2026-05-09 20:57 | -43.21022 | -65.28312 | 120 ft | 0 kts | 339° |
| 2026-05-09 21:24 | -43.21037 | -65.28305 | 115 ft | 3 kts | 349° |
| 2026-05-09 21:24 | -43.21057 | -65.28301 | 118 ft | 3 kts | 358° |
| 2026-05-09 21:24 | -43.21063 | -65.28301 | 118 ft | 0 kts | 356° |
| 2026-05-09 21:26 | -43.21059 | -65.28302 | 118 ft | 1 kts | 356° |
| 2026-05-09 21:26 | -43.21052 | -65.28291 | 119 ft | 3 kts | 55° |
| 2026-05-09 21:27 | -43.21041 | -65.28242 | 118 ft | 8 kts | 73° |
| 2026-05-09 21:27 | -43.21026 | -65.28149 | 118 ft | 12 kts | 93° |
| 2026-05-09 21:27 | -43.21086 | -65.28079 | 116 ft | 12 kts | 149° |
| 2026-05-09 21:27 | -43.21135 | -65.27983 | 118 ft | 13 kts | 107° |
| 2026-05-09 21:28 | -43.21147 | -65.27856 | 120 ft | 14 kts | 98° |
| 2026-05-09 21:28 | -43.21165 | -65.27723 | 118 ft | 15 kts | 101° |
| 2026-05-09 21:28 | -43.21177 | -65.27574 | 118 ft | 17 kts | 92° |
| 2026-05-09 21:28 | -43.21155 | -65.27418 | 118 ft | 17 kts | 70° |
| 2026-05-09 21:29 | -43.21113 | -65.27265 | 117 ft | 18 kts | 69° |
| 2026-05-09 21:29 | -43.21066 | -65.27099 | 118 ft | 19 kts | 69° |
| 2026-05-09 21:29 | -43.21015 | -65.26915 | 116 ft | 22 kts | 69° |
| 2026-05-09 21:29 | -43.20957 | -65.26704 | 118 ft | 25 kts | 69° |
| 2026-05-09 21:30 | -43.20892 | -65.26473 | 114 ft | 27 kts | 69° |
| 2026-05-09 21:30 | -43.20825 | -65.26227 | 116 ft | 28 kts | 67° |
| 2026-05-09 21:30 | -43.20699 | -65.26031 | 119 ft | 27 kts | 39° |
| 2026-05-09 21:30 | -43.20585 | -65.25900 | 120 ft | 20 kts | 43° |
| 2026-05-09 21:31 | -43.20480 | -65.25770 | 116 ft | 21 kts | 59° |
| 2026-05-09 21:31 | -43.20497 | -65.25638 | 118 ft | 11 kts | 154° |
| 2026-05-09 21:31 | -43.20570 | -65.25596 | 119 ft | 11 kts | 159° |
| 2026-05-09 21:31 | -43.20639 | -65.25610 | 117 ft | 10 kts | 211° |
| 2026-05-09 21:32 | -43.20676 | -65.25694 | 120 ft | 13 kts | 248° |
| 2026-05-09 21:32 | -43.20785 | -65.26086 | 114 ft | 81 kts | 250° |
| 2026-05-09 21:32 | -43.21062 | -65.27093 | 123 ft | 142 kts | 249° |
| 2026-05-09 21:32 | -43.21428 | -65.28405 | 689 ft | 145 kts | 250° |
| 2026-05-09 21:33 | -43.21791 | -65.29697 | 1422 ft | 147 kts | 249° |
| 2026-05-09 21:33 | -43.22170 | -65.31060 | 1822 ft | 161 kts | 249° |
| 2026-05-09 21:33 | -43.22594 | -65.32589 | 2035 ft | 182 kts | 249° |
| 2026-05-09 21:33 | -43.23072 | -65.34318 | 2173 ft | 206 kts | 249° |
| 2026-05-09 21:34 | -43.23599 | -65.36237 | 2579 ft | 220 kts | 249° |
| 2026-05-09 21:34 | -43.24044 | -65.38228 | 3412 ft | 221 kts | 263° |
| 2026-05-09 21:34 | -43.23646 | -65.40281 | 4148 ft | 236 kts | 300° |
| 2026-05-09 21:34 | -43.22297 | -65.41676 | 4820 ft | 257 kts | 334° |
| 2026-05-09 21:35 | -43.20515 | -65.42230 | 5486 ft | 268 kts | 349° |
| 2026-05-09 21:35 | -43.18632 | -65.42425 | 6162 ft | 274 kts | 353° |
| 2026-05-09 21:35 | -43.16712 | -65.42537 | 6845 ft | 278 kts | 353° |
| 2026-05-09 21:35 | -43.14766 | -65.42323 | 7451 ft | 288 kts | 17° |
| 2026-05-09 21:36 | -43.13032 | -65.41012 | 8040 ft | 293 kts | 44° |
| 2026-05-09 21:36 | -43.11830 | -65.38797 | 8640 ft | 290 kts | 72° |
| 2026-05-09 21:36 | -43.11080 | -65.36226 | 9293 ft | 292 kts | 75° |
| 2026-05-09 21:36 | -43.10344 | -65.33613 | 9947 ft | 296 kts | 75° |
| 2026-05-09 21:37 | -43.09600 | -65.30962 | 10542 ft | 300 kts | 75° |
| 2026-05-09 21:37 | -43.08848 | -65.28286 | 11156 ft | 303 kts | 75° |
| 2026-05-09 21:37 | -43.08084 | -65.25571 | 11742 ft | 307 kts | 75° |
| 2026-05-09 21:37 | -43.07312 | -65.22837 | 12345 ft | 310 kts | 74° |
| 2026-05-09 21:38 | -43.06232 | -65.20145 | 12518 ft | 339 kts | 55° |
| 2026-05-09 21:38 | -43.04440 | -65.17871 | 12659 ft | 364 kts | 33° |
| 2026-05-09 21:38 | -43.02072 | -65.16440 | 12796 ft | 382 kts | 11° |
| 2026-05-09 21:38 | -42.99389 | -65.16008 | 12911 ft | 397 kts | 0° |
| 2026-05-09 21:39 | -42.96574 | -65.15779 | 13123 ft | 412 kts | 1° |
| 2026-05-09 21:39 | -42.93684 | -65.15535 | 13625 ft | 418 kts | 1° |
| 2026-05-09 21:39 | -42.90763 | -65.15281 | 14176 ft | 422 kts | 1° |
| 2026-05-09 21:39 | -42.87819 | -65.15022 | 14695 ft | 426 kts | 1° |
| 2026-05-09 21:40 | -42.84882 | -65.14762 | 15213 ft | 430 kts | 1° |
| 2026-05-09 21:40 | -42.81849 | -65.14488 | 15766 ft | 434 kts | 2° |
| 2026-05-09 21:40 | -42.78826 | -65.14089 | 16271 ft | 439 kts | 4° |
| 2026-05-09 21:40 | -42.75786 | -65.13536 | 16802 ft | 443 kts | 6° |
| 2026-05-09 21:41 | -42.72767 | -65.12896 | 17311 ft | 447 kts | 7° |
| 2026-05-09 21:41 | -42.69686 | -65.12203 | 17818 ft | 451 kts | 7° |
| 2026-05-09 21:41 | -42.66570 | -65.11532 | 18315 ft | 454 kts | 4° |
| 2026-05-09 21:41 | -42.63408 | -65.11257 | 18765 ft | 456 kts | 359° |
| 2026-05-09 21:42 | -42.60230 | -65.11100 | 19207 ft | 459 kts | 359° |
| 2026-05-09 21:42 | -42.57021 | -65.10975 | 19631 ft | 462 kts | 358° |
| 2026-05-09 21:42 | -42.53789 | -65.10867 | 20067 ft | 465 kts | 358° |
| 2026-05-09 21:42 | -42.50529 | -65.10758 | 20498 ft | 469 kts | 358° |
| 2026-05-09 21:43 | -42.47260 | -65.10638 | 20917 ft | 472 kts | 358° |
| 2026-05-09 21:43 | -42.43969 | -65.10505 | 21326 ft | 475 kts | 358° |
| 2026-05-09 21:43 | -42.40646 | -65.10365 | 21739 ft | 478 kts | 358° |
| 2026-05-09 21:43 | -42.37354 | -65.10223 | 22119 ft | 481 kts | 358° |
| 2026-05-09 21:44 | -42.34005 | -65.10079 | 22513 ft | 483 kts | 358° |
| 2026-05-09 21:44 | -42.30634 | -65.09936 | 22894 ft | 486 kts | 358° |
| 2026-05-09 21:44 | -42.27236 | -65.09777 | 23272 ft | 490 kts | 359° |
| 2026-05-09 21:44 | -42.23825 | -65.09464 | 23644 ft | 494 kts | 1° |
| 2026-05-09 21:45 | -42.20395 | -65.08975 | 23987 ft | 498 kts | 4° |
| 2026-05-09 21:45 | -42.16945 | -65.08366 | 24271 ft | 502 kts | 5° |
| 2026-05-09 21:45 | -42.13473 | -65.07704 | 24552 ft | 505 kts | 5° |
| 2026-05-09 21:45 | -42.09984 | -65.07053 | 24835 ft | 508 kts | 5° |
| 2026-05-09 21:46 | -42.06468 | -65.06441 | 25126 ft | 510 kts | 4° |
| 2026-05-09 21:46 | -42.02932 | -65.05871 | 25409 ft | 513 kts | 3° |
| 2026-05-09 21:46 | -41.99366 | -65.05327 | 25675 ft | 516 kts | 3° |
| 2026-05-09 21:46 | -41.95790 | -65.04794 | 25947 ft | 520 kts | 3° |
| 2026-05-09 21:47 | -41.92184 | -65.04254 | 26214 ft | 523 kts | 3° |
| 2026-05-09 21:47 | -41.88563 | -65.03703 | 26483 ft | 526 kts | 3° |
| 2026-05-09 21:47 | -41.84919 | -65.03140 | 26741 ft | 529 kts | 4° |
| 2026-05-09 21:47 | -41.81256 | -65.02570 | 26995 ft | 531 kts | 4° |
| 2026-05-09 21:48 | -41.77573 | -65.01996 | 27230 ft | 534 kts | 4° |
| 2026-05-09 21:48 | -41.73871 | -65.01419 | 27482 ft | 537 kts | 4° |
| 2026-05-09 21:48 | -41.70151 | -65.00838 | 27741 ft | 540 kts | 4° |
| 2026-05-09 21:48 | -41.66408 | -65.00257 | 27998 ft | 543 kts | 4° |
| 2026-05-09 21:49 | -41.62646 | -64.99677 | 28256 ft | 545 kts | 4° |
| 2026-05-09 21:49 | -41.58865 | -64.99095 | 28501 ft | 548 kts | 4° |
| 2026-05-09 21:49 | -41.55070 | -64.98508 | 28817 ft | 549 kts | 4° |
| 2026-05-09 21:49 | -41.51325 | -64.97926 | 29192 ft | 549 kts | 4° |
| 2026-05-09 21:50 | -41.47537 | -64.97337 | 29557 ft | 549 kts | 4° |
| 2026-05-09 21:50 | -41.43740 | -64.96748 | 29883 ft | 550 kts | 4° |
| 2026-05-09 21:50 | -41.36135 | -64.95585 | 30511 ft | 550 kts | 4° |
| 2026-05-09 21:51 | -41.32325 | -64.95007 | 30817 ft | 550 kts | 4° |
| 2026-05-09 21:51 | -41.28519 | -64.94427 | 31105 ft | 550 kts | 4° |
| 2026-05-09 21:51 | -41.24706 | -64.93845 | 31400 ft | 551 kts | 4° |
| 2026-05-09 21:51 | -41.20892 | -64.93259 | 31674 ft | 551 kts | 4° |
| 2026-05-09 21:52 | -41.17090 | -64.92675 | 31946 ft | 551 kts | 4° |
| 2026-05-09 21:52 | -41.13285 | -64.92094 | 32250 ft | 550 kts | 4° |
| 2026-05-09 21:52 | -41.09475 | -64.91515 | 32536 ft | 550 kts | 4° |
| 2026-05-09 21:52 | -41.05670 | -64.90940 | 32812 ft | 551 kts | 4° |
| 2026-05-09 21:53 | -41.01852 | -64.90364 | 33088 ft | 551 kts | 4° |
| 2026-05-09 21:53 | -40.98042 | -64.89786 | 33345 ft | 551 kts | 4° |
| 2026-05-09 21:53 | -40.94240 | -64.89210 | 33623 ft | 551 kts | 4° |
| 2026-05-09 21:54 | -40.86619 | -64.88062 | 34147 ft | 551 kts | 4° |
| 2026-05-09 21:54 | -40.82856 | -64.87495 | 34386 ft | 551 kts | 4° |
| 2026-05-09 21:54 | -40.79043 | -64.86918 | 34609 ft | 551 kts | 4° |
| 2026-05-09 21:54 | -40.75230 | -64.86338 | 34849 ft | 551 kts | 4° |
| 2026-05-09 21:55 | -40.71427 | -64.85763 | 35085 ft | 550 kts | 4° |
| 2026-05-09 21:55 | -40.67624 | -64.85190 | 35219 ft | 551 kts | 4° |
| 2026-05-09 21:55 | -40.61250 | -64.84239 | 35246 ft | 550 kts | 4° |
| 2026-05-09 21:56 | -40.52415 | -64.82920 | 35249 ft | 550 kts | 4° |
| 2026-05-09 21:56 | -40.46052 | -64.81971 | 35252 ft | 549 kts | 4° |
| 2026-05-09 21:57 | -40.38506 | -64.80846 | 35263 ft | 549 kts | 4° |
| 2026-05-09 21:57 | -40.29626 | -64.79515 | 35260 ft | 549 kts | 4° |
| 2026-05-09 21:58 | -40.23313 | -64.78573 | 35269 ft | 550 kts | 4° |
| 2026-05-09 21:58 | -40.15700 | -64.77442 | 35260 ft | 550 kts | 4° |
| 2026-05-09 21:59 | -40.08092 | -64.76321 | 35275 ft | 550 kts | 4° |
| 2026-05-09 21:59 | -40.00479 | -64.75205 | 35284 ft | 550 kts | 4° |
| 2026-05-09 22:00 | -39.92885 | -64.74098 | 35272 ft | 549 kts | 4° |
| 2026-05-09 22:00 | -39.85284 | -64.72998 | 35289 ft | 549 kts | 4° |
| 2026-05-09 22:01 | -39.77687 | -64.71901 | 35295 ft | 548 kts | 4° |
| 2026-05-09 22:01 | -39.70106 | -64.70794 | 35286 ft | 548 kts | 5° |
| 2026-05-09 22:02 | -39.62569 | -64.69691 | 35297 ft | 548 kts | 5° |
| 2026-05-09 22:02 | -39.54988 | -64.68572 | 35295 ft | 548 kts | 5° |
| 2026-05-09 22:03 | -39.47418 | -64.67466 | 35294 ft | 547 kts | 5° |
| 2026-05-09 22:03 | -39.39841 | -64.66374 | 35298 ft | 547 kts | 5° |
| 2026-05-09 22:04 | -39.22009 | -64.63794 | 35298 ft | 547 kts | 5° |
| 2026-05-09 22:04 | -38.91729 | -64.59455 | 35307 ft | 547 kts | 5° |
| 2026-05-09 22:05 | -38.61380 | -64.55116 | 35306 ft | 548 kts | 5° |
| 2026-05-09 22:05 | -38.31069 | -64.50802 | 35316 ft | 548 kts | 5° |
| 2026-05-09 22:06 | -38.01101 | -64.46580 | 35327 ft | 548 kts | 6° |
| 2026-05-09 22:06 | -37.70900 | -64.42343 | 35330 ft | 549 kts | 7° |
| 2026-05-09 22:07 | -37.40508 | -64.38125 | 35336 ft | 550 kts | 7° |
| 2026-05-09 22:07 | -37.10067 | -64.34066 | 35309 ft | 550 kts | 7° |
| 2026-05-09 22:08 | -36.79582 | -64.30053 | 35328 ft | 551 kts | 8° |
| 2026-05-09 22:08 | -35.03404 | -64.02290 | 35363 ft | 549 kts | 11° |
| 2026-05-09 22:09 | -34.95828 | -64.01086 | 35356 ft | 549 kts | 13° |
| 2026-05-09 22:09 | -33.20484 | -63.73925 | 35385 ft | 549 kts | 8° |
| 2026-05-09 22:10 | -33.12921 | -63.72940 | 35369 ft | 546 kts | 13° |
| 2026-05-09 22:10 | -33.05415 | -63.71531 | 35390 ft | 544 kts | 13° |
| 2026-05-09 22:11 | -32.98060 | -63.70223 | 35370 ft | 544 kts | 12° |
| 2026-05-09 22:11 | -32.94444 | -63.69669 | 35044 ft | 540 kts | 7° |
| 2026-05-09 22:11 | -32.90754 | -63.69143 | 35368 ft | 528 kts | 11° |
| 2026-05-09 22:12 | -32.83467 | -63.68140 | 35357 ft | 531 kts | 11° |
| 2026-05-09 22:12 | -32.76134 | -63.67071 | 35341 ft | 535 kts | 11° |
| 2026-05-09 22:13 | -32.68752 | -63.65939 | 35345 ft | 536 kts | 11° |
| 2026-05-09 22:13 | -32.61353 | -63.64810 | 35340 ft | 536 kts | 11° |
| 2026-05-09 22:14 | -32.53957 | -63.63701 | 35339 ft | 535 kts | 11° |
| 2026-05-09 22:14 | -32.46563 | -63.62597 | 35010 ft | 535 kts | 11° |
| 2026-05-09 22:15 | -32.42866 | -63.62046 | 34765 ft | 535 kts | 11° |
| 2026-05-09 22:15 | -32.39164 | -63.61495 | 34298 ft | 537 kts | 11° |
| 2026-05-09 22:15 | -32.35444 | -63.60937 | 33077 ft | 539 kts | 11° |
| 2026-05-09 22:15 | -32.31711 | -63.60376 | 32165 ft | 543 kts | 11° |
| 2026-05-09 22:16 | -32.27979 | -63.59818 | 31120 ft | 535 kts | 12° |
| 2026-05-09 22:16 | -32.24320 | -63.59279 | 29982 ft | 526 kts | 12° |
| 2026-05-09 22:16 | -32.20722 | -63.58752 | 28936 ft | 514 kts | 11° |
| 2026-05-09 22:16 | -32.17272 | -63.58255 | 28392 ft | 489 kts | 11° |
| 2026-05-09 22:17 | -32.13884 | -63.57760 | 27690 ft | 491 kts | 11° |
| 2026-05-09 22:17 | -32.10496 | -63.57253 | 27049 ft | 490 kts | 11° |
| 2026-05-09 22:17 | -32.07112 | -63.56756 | 26384 ft | 490 kts | 8° |
| 2026-05-09 22:17 | -32.03708 | -63.56632 | 25785 ft | 489 kts | 358° |
| 2026-05-09 22:18 | -32.00323 | -63.56946 | 25209 ft | 486 kts | 355° |
| 2026-05-09 22:18 | -31.97006 | -63.57293 | 24627 ft | 483 kts | 355° |
| 2026-05-09 22:18 | -31.93672 | -63.57636 | 24071 ft | 479 kts | 355° |
| 2026-05-09 22:18 | -31.90318 | -63.57975 | 23411 ft | 476 kts | 355° |
| 2026-05-09 22:19 | -31.87083 | -63.58303 | 22872 ft | 469 kts | 354° |
| 2026-05-09 22:19 | -31.83845 | -63.58630 | 22323 ft | 463 kts | 354° |
| 2026-05-09 22:19 | -31.80662 | -63.58953 | 21794 ft | 456 kts | 354° |
| 2026-05-09 22:19 | -31.77512 | -63.59274 | 21273 ft | 450 kts | 353° |
| 2026-05-09 22:20 | -31.74411 | -63.59593 | 20774 ft | 445 kts | 353° |
| 2026-05-09 22:20 | -31.71344 | -63.59910 | 20288 ft | 440 kts | 353° |
| 2026-05-09 22:20 | -31.68304 | -63.60219 | 19814 ft | 437 kts | 353° |
| 2026-05-09 22:20 | -31.65285 | -63.60526 | 19342 ft | 434 kts | 353° |
| 2026-05-09 22:21 | -31.62294 | -63.60829 | 18871 ft | 431 kts | 353° |
| 2026-05-09 22:21 | -31.59311 | -63.61131 | 18359 ft | 428 kts | 353° |
| 2026-05-09 22:21 | -31.56366 | -63.61428 | 17888 ft | 423 kts | 353° |
| 2026-05-09 22:21 | -31.53447 | -63.61722 | 17415 ft | 418 kts | 353° |
| 2026-05-09 22:22 | -31.50561 | -63.62011 | 16916 ft | 414 kts | 353° |
| 2026-05-09 22:22 | -31.47709 | -63.62298 | 16403 ft | 410 kts | 353° |
| 2026-05-09 22:22 | -31.44881 | -63.62592 | 15908 ft | 406 kts | 352° |
| 2026-05-09 22:22 | -31.42135 | -63.63253 | 15400 ft | 400 kts | 340° |
| 2026-05-09 22:23 | -31.39597 | -63.64516 | 14895 ft | 394 kts | 328° |
| 2026-05-09 22:23 | -31.37389 | -63.66278 | 14402 ft | 387 kts | 316° |
| 2026-05-09 22:23 | -31.35515 | -63.68491 | 13877 ft | 380 kts | 305° |
| 2026-05-09 22:23 | -31.33905 | -63.70915 | 13369 ft | 374 kts | 304° |
| 2026-05-09 22:24 | -31.32313 | -63.73310 | 12880 ft | 370 kts | 304° |
| 2026-05-09 22:24 | -31.30741 | -63.75669 | 12382 ft | 366 kts | 304° |
| 2026-05-09 22:24 | -31.29181 | -63.78001 | 11895 ft | 362 kts | 304° |
| 2026-05-09 22:24 | -31.27635 | -63.80308 | 11412 ft | 359 kts | 304° |
| 2026-05-09 22:25 | -31.26102 | -63.82593 | 10982 ft | 350 kts | 304° |
| 2026-05-09 22:25 | -31.24663 | -63.84728 | 10806 ft | 321 kts | 304° |
| 2026-05-09 22:25 | -31.23317 | -63.86729 | 10315 ft | 307 kts | 304° |
| 2026-05-09 22:25 | -31.22008 | -63.88686 | 9903 ft | 302 kts | 304° |
| 2026-05-09 22:26 | -31.20724 | -63.90610 | 9765 ft | 299 kts | 304° |
| 2026-05-09 22:26 | -31.19453 | -63.92516 | 9639 ft | 297 kts | 304° |
| 2026-05-09 22:26 | -31.18183 | -63.94418 | 9507 ft | 296 kts | 304° |
| 2026-05-09 22:26 | -31.16934 | -63.96280 | 9376 ft | 294 kts | 304° |
| 2026-05-09 22:27 | -31.15652 | -63.98190 | 9015 ft | 296 kts | 304° |
| 2026-05-09 22:27 | -31.14396 | -64.00064 | 8715 ft | 291 kts | 304° |
| 2026-05-09 22:27 | -31.13175 | -64.01888 | 8378 ft | 288 kts | 305° |
| 2026-05-09 22:27 | -31.11948 | -64.03720 | 8037 ft | 285 kts | 305° |
| 2026-05-09 22:28 | -31.10740 | -64.05520 | 7821 ft | 275 kts | 306° |
| 2026-05-09 22:28 | -31.09602 | -64.07206 | 7594 ft | 255 kts | 306° |
| 2026-05-09 22:28 | -31.08664 | -64.08893 | 7141 ft | 244 kts | 291° |
| 2026-05-09 22:28 | -31.08210 | -64.10765 | 6937 ft | 236 kts | 276° |
| 2026-05-09 22:29 | -31.08184 | -64.12657 | 6719 ft | 232 kts | 266° |
| 2026-05-09 22:29 | -31.08282 | -64.14529 | 6439 ft | 231 kts | 266° |
| 2026-05-09 22:29 | -31.08391 | -64.16400 | 6100 ft | 232 kts | 263° |
| 2026-05-09 22:29 | -31.08868 | -64.18218 | 5674 ft | 234 kts | 240° |
| 2026-05-09 22:30 | -31.09847 | -64.19691 | 5483 ft | 231 kts | 221° |
| 2026-05-09 22:30 | -31.11189 | -64.20699 | 5269 ft | 229 kts | 201° |
| 2026-05-09 22:30 | -31.12732 | -64.21120 | 4993 ft | 227 kts | 181° |
| 2026-05-09 22:30 | -31.14288 | -64.21103 | 4697 ft | 227 kts | 178° |
| 2026-05-09 22:31 | -31.15886 | -64.21078 | 4412 ft | 225 kts | 178° |
| 2026-05-09 22:31 | -31.17439 | -64.21054 | 4076 ft | 221 kts | 178° |
| 2026-05-09 22:31 | -31.18921 | -64.21030 | 3790 ft | 213 kts | 178° |
| 2026-05-09 22:31 | -31.20381 | -64.21006 | 3529 ft | 203 kts | 178° |
| 2026-05-09 22:32 | -31.21727 | -64.20986 | 3257 ft | 183 kts | 178° |
| 2026-05-09 22:32 | -31.22916 | -64.20967 | 3011 ft | 159 kts | 177° |
| 2026-05-09 22:32 | -31.23983 | -64.20943 | 2787 ft | 149 kts | 176° |
| 2026-05-09 22:32 | -31.25004 | -64.20941 | 2600 ft | 145 kts | 179° |
| 2026-05-09 22:33 | -31.26009 | -64.20918 | 2382 ft | 143 kts | 175° |
| 2026-05-09 22:33 | -31.27001 | -64.20889 | 2152 ft | 141 kts | 178° |
| 2026-05-09 22:33 | -31.27986 | -64.20880 | 1986 ft | 141 kts | 178° |
| 2026-05-09 22:33 | -31.28966 | -64.20865 | 1778 ft | 141 kts | 178° |
| 2026-05-09 22:34 | -31.29934 | -64.20853 | 1629 ft | 131 kts | 178° |
| 2026-05-09 22:34 | -31.30691 | -64.20839 | 1614 ft | 73 kts | 181° |
| 2026-05-09 22:34 | -31.30980 | -64.20838 | 1615 ft | 32 kts | 177° |
| 2026-05-09 22:34 | -31.31193 | -64.20832 | 1617 ft | 30 kts | 179° |
| 2026-05-09 22:35 | -31.31387 | -64.20830 | 1616 ft | 24 kts | 181° |
| 2026-05-09 22:35 | -31.31463 | -64.20884 | 1620 ft | 11 kts | 256° |
| 2026-05-09 22:35 | -31.31464 | -64.20980 | 1613 ft | 11 kts | 269° |
| 2026-05-09 22:35 | -31.31471 | -64.21064 | 1613 ft | 10 kts | 264° |
| 2026-05-09 22:36 | -31.31481 | -64.21142 | 1618 ft | 6 kts | 258° |
| 2026-05-09 22:36 | -31.31486 | -64.21174 | 1614 ft | 1 kts | 261° |
| 2026-05-09 22:36 | -31.31487 | -64.21182 | 1613 ft | 0 kts | 261° |